Fresno, California
Current Conditions -  °F | °C
As of 9:53 AM on Wednesday 28 Jan 2015 (Local Time) from KFAT Reporting Station
Moderate Fog Moderate Fog  
Wind Chill: 48°   Ceiling: 200
Heat Index: 48°   Visibility: 0.12mi
Dew Point: 48°   Wind: 3mph
Humidity: 100%   Direction: 90°E
Pressure: 30.28"   Gusts: NA
Location:  36.74°N, 119.78°W
Report Text: KFAT 281753Z 09003KT 1/8SM R29R/1000V1200FT FG VV002 09/09 A3028 RMK AO2 SLP252 T00890089 10089 20067 53010
Loading
Personal Weather Stations






























Interactive Weather Map New forecast layout! Learn more

10-Day Weather Forecast

Advertisements
Track Severe Weather on mobile